sensor_id;sensor_type;location;lat;lon;timestamp;temperature;humidity
2897;DHT22;1458;49.728;9.228;2023-06-19T00:01:28;21.20;60.50
2897;DHT22;1458;49.728;9.228;2023-06-19T00:03:57;21.20;61.20
2897;DHT22;1458;49.728;9.228;2023-06-19T00:06:24;21.20;62.00
2897;DHT22;1458;49.728;9.228;2023-06-19T00:08:52;21.20;61.60
2897;DHT22;1458;49.728;9.228;2023-06-19T00:11:19;21.30;61.30
2897;DHT22;1458;49.728;9.228;2023-06-19T00:13:47;21.30;60.90
2897;DHT22;1458;49.728;9.228;2023-06-19T00:16:14;21.20;61.10
2897;DHT22;1458;49.728;9.228;2023-06-19T00:18:42;21.30;61.00
2897;DHT22;1458;49.728;9.228;2023-06-19T00:21:11;21.20;61.40
2897;DHT22;1458;49.728;9.228;2023-06-19T00:23:38;21.20;61.60
2897;DHT22;1458;49.728;9.228;2023-06-19T00:26:05;21.10;62.00
2897;DHT22;1458;49.728;9.228;2023-06-19T00:28:33;21.00;62.70
2897;DHT22;1458;49.728;9.228;2023-06-19T00:31:04;21.00;62.70
2897;DHT22;1458;49.728;9.228;2023-06-19T00:33:32;21.00;62.50
2897;DHT22;1458;49.728;9.228;2023-06-19T00:36:00;21.00;62.40
2897;DHT22;1458;49.728;9.228;2023-06-19T00:38:29;21.00;62.50
2897;DHT22;1458;49.728;9.228;2023-06-19T00:40:56;21.00;62.40
2897;DHT22;1458;49.728;9.228;2023-06-19T00:43:24;20.90;62.30
2897;DHT22;1458;49.728;9.228;2023-06-19T00:45:51;20.80;62.70
2897;DHT22;1458;49.728;9.228;2023-06-19T00:48:19;20.70;63.30
2897;DHT22;1458;49.728;9.228;2023-06-19T00:50:48;20.50;64.00
2897;DHT22;1458;49.728;9.228;2023-06-19T00:53:17;20.50;64.50
2897;DHT22;1458;49.728;9.228;2023-06-19T00:55:49;20.50;64.50
2897;DHT22;1458;49.728;9.228;2023-06-19T00:58:18;20.40;64.80
2897;DHT22;1458;49.728;9.228;2023-06-19T01:00:46;20.40;65.20
2897;DHT22;1458;49.728;9.228;2023-06-19T01:03:14;20.20;65.10
2897;DHT22;1458;49.728;9.228;2023-06-19T01:05:42;20.00;65.80
2897;DHT22;1458;49.728;9.228;2023-06-19T01:08:14;19.90;66.60
2897;DHT22;1458;49.728;9.228;2023-06-19T01:10:54;19.90;67.30
2897;DHT22;1458;49.728;9.228;2023-06-19T01:13:28;19.90;67.90
2897;DHT22;1458;49.728;9.228;2023-06-19T01:15:59;19.80;67.90
2897;DHT22;1458;49.728;9.228;2023-06-19T01:18:28;19.80;67.80
2897;DHT22;1458;49.728;9.228;2023-06-19T01:20:56;19.60;68.50
2897;DHT22;1458;49.728;9.228;2023-06-19T01:23:25;19.50;68.70
2897;DHT22;1458;49.728;9.228;2023-06-19T01:25:52;19.40;69.30
2897;DHT22;1458;49.728;9.228;2023-06-19T01:28:20;19.20;70.20
2897;DHT22;1458;49.728;9.228;2023-06-19T01:30:47;19.00;70.80
2897;DHT22;1458;49.728;9.228;2023-06-19T01:33:21;18.90;71.30
2897;DHT22;1458;49.728;9.228;2023-06-19T01:35:52;18.70;72.00
2897;DHT22;1458;49.728;9.228;2023-06-19T01:38:21;18.60;73.20
2897;DHT22;1458;49.728;9.228;2023-06-19T01:40:53;18.60;73.20
2897;DHT22;1458;49.728;9.228;2023-06-19T01:43:22;18.80;73.80
2897;DHT22;1458;49.728;9.228;2023-06-19T01:45:51;18.90;73.20
2897;DHT22;1458;49.728;9.228;2023-06-19T01:48:19;18.90;73.40
2897;DHT22;1458;49.728;9.228;2023-06-19T01:50:47;18.90;73.50
2897;DHT22;1458;49.728;9.228;2023-06-19T01:53:15;18.90;73.60
2897;DHT22;1458;49.728;9.228;2023-06-19T01:55:45;18.80;73.60
2897;DHT22;1458;49.728;9.228;2023-06-19T01:58:14;18.70;73.60
2897;DHT22;1458;49.728;9.228;2023-06-19T02:00:42;18.60;72.90
2897;DHT22;1458;49.728;9.228;2023-06-19T02:03:09;18.60;73.90
2897;DHT22;1458;49.728;9.228;2023-06-19T02:05:37;18.70;73.80
2897;DHT22;1458;49.728;9.228;2023-06-19T02:08:05;18.70;73.50
2897;DHT22;1458;49.728;9.228;2023-06-19T02:10:36;18.70;72.80
2897;DHT22;1458;49.728;9.228;2023-06-19T02:13:03;18.80;72.80
2897;DHT22;1458;49.728;9.228;2023-06-19T02:15:32;18.70;72.60
2897;DHT22;1458;49.728;9.228;2023-06-19T02:18:00;18.60;72.80
2897;DHT22;1458;49.728;9.228;2023-06-19T02:20:27;18.60;73.10
2897;DHT22;1458;49.728;9.228;2023-06-19T02:22:55;18.70;72.90
2897;DHT22;1458;49.728;9.228;2023-06-19T02:25:23;18.70;72.20
2897;DHT22;1458;49.728;9.228;2023-06-19T02:27:50;18.70;72.20
2897;DHT22;1458;49.728;9.228;2023-06-19T02:30:18;18.60;72.30
2897;DHT22;1458;49.728;9.228;2023-06-19T02:32:47;18.50;72.70
2897;DHT22;1458;49.728;9.228;2023-06-19T02:35:14;18.60;73.20
2897;DHT22;1458;49.728;9.228;2023-06-19T02:37:43;18.50;73.60
2897;DHT22;1458;49.728;9.228;2023-06-19T02:40:12;18.70;73.90
2897;DHT22;1458;49.728;9.228;2023-06-19T02:42:40;18.70;73.60
2897;DHT22;1458;49.728;9.228;2023-06-19T02:45:08;18.70;73.60
2897;DHT22;1458;49.728;9.228;2023-06-19T02:47:36;18.70;73.30
2897;DHT22;1458;49.728;9.228;2023-06-19T02:50:07;18.70;73.20
2897;DHT22;1458;49.728;9.228;2023-06-19T02:52:35;18.60;73.70
2897;DHT22;1458;49.728;9.228;2023-06-19T02:55:03;18.50;75.00
2897;DHT22;1458;49.728;9.228;2023-06-19T02:57:32;18.30;75.60
2897;DHT22;1458;49.728;9.228;2023-06-19T03:00:02;18.20;76.40
2897;DHT22;1458;49.728;9.228;2023-06-19T03:02:32;18.20;76.70
2897;DHT22;1458;49.728;9.228;2023-06-19T03:05:00;18.20;76.90
2897;DHT22;1458;49.728;9.228;2023-06-19T03:07:28;18.30;76.30
2897;DHT22;1458;49.728;9.228;2023-06-19T03:09:56;18.30;76.50
2897;DHT22;1458;49.728;9.228;2023-06-19T03:12:24;18.20;76.80
2897;DHT22;1458;49.728;9.228;2023-06-19T03:14:52;18.20;77.10
2897;DHT22;1458;49.728;9.228;2023-06-19T03:17:19;18.20;77.30
2897;DHT22;1458;49.728;9.228;2023-06-19T03:19:46;18.30;76.00
2897;DHT22;1458;49.728;9.228;2023-06-19T03:22:14;18.50;75.00
2897;DHT22;1458;49.728;9.228;2023-06-19T03:24:44;18.60;75.10
2897;DHT22;1458;49.728;9.228;2023-06-19T03:27:18;18.50;75.00
2897;DHT22;1458;49.728;9.228;2023-06-19T03:29:46;18.60;75.10
2897;DHT22;1458;49.728;9.228;2023-06-19T03:32:19;18.70;74.70
2897;DHT22;1458;49.728;9.228;2023-06-19T03:34:47;18.60;74.50
2897;DHT22;1458;49.728;9.228;2023-06-19T03:37:15;18.70;73.90
2897;DHT22;1458;49.728;9.228;2023-06-19T03:39:44;18.70;73.70
2897;DHT22;1458;49.728;9.228;2023-06-19T03:42:12;18.90;72.80
2897;DHT22;1458;49.728;9.228;2023-06-19T03:44:41;19.00;72.60
2897;DHT22;1458;49.728;9.228;2023-06-19T03:47:08;19.10;72.70
2897;DHT22;1458;49.728;9.228;2023-06-19T03:49:36;19.10;73.00
2897;DHT22;1458;49.728;9.228;2023-06-19T03:52:04;19.10;73.80
2897;DHT22;1458;49.728;9.228;2023-06-19T03:54:32;18.90;74.00
2897;DHT22;1458;49.728;9.228;2023-06-19T03:57:01;18.90;74.30
2897;DHT22;1458;49.728;9.228;2023-06-19T03:59:29;18.90;74.00
2897;DHT22;1458;49.728;9.228;2023-06-19T04:01:56;19.10;73.30
2897;DHT22;1458;49.728;9.228;2023-06-19T04:04:24;19.20;73.20
2897;DHT22;1458;49.728;9.228;2023-06-19T04:06:51;19.40;72.30
2897;DHT22;1458;49.728;9.228;2023-06-19T04:09:19;19.50;71.70
2897;DHT22;1458;49.728;9.228;2023-06-19T04:11:46;19.60;70.90
2897;DHT22;1458;49.728;9.228;2023-06-19T04:14:15;19.80;71.70
2897;DHT22;1458;49.728;9.228;2023-06-19T04:16:43;19.80;70.50
2897;DHT22;1458;49.728;9.228;2023-06-19T04:19:10;19.80;70.00
2897;DHT22;1458;49.728;9.228;2023-06-19T04:21:38;20.00;68.70
2897;DHT22;1458;49.728;9.228;2023-06-19T04:24:05;20.10;68.00
2897;DHT22;1458;49.728;9.228;2023-06-19T04:26:35;20.10;68.30
2897;DHT22;1458;49.728;9.228;2023-06-19T04:29:02;20.10;68.20
2897;DHT22;1458;49.728;9.228;2023-06-19T04:31:32;20.10;68.50
2897;DHT22;1458;49.728;9.228;2023-06-19T04:34:06;20.10;68.10
2897;DHT22;1458;49.728;9.228;2023-06-19T04:36:34;20.10;69.10
2897;DHT22;1458;49.728;9.228;2023-06-19T04:39:01;20.10;69.50
2897;DHT22;1458;49.728;9.228;2023-06-19T04:41:29;20.20;69.10
2897;DHT22;1458;49.728;9.228;2023-06-19T04:43:56;20.20;69.10
2897;DHT22;1458;49.728;9.228;2023-06-19T04:46:24;20.30;69.40
2897;DHT22;1458;49.728;9.228;2023-06-19T04:48:53;20.20;69.00
2897;DHT22;1458;49.728;9.228;2023-06-19T04:51:21;20.30;69.50
2897;DHT22;1458;49.728;9.228;2023-06-19T04:53:48;20.30;69.80
2897;DHT22;1458;49.728;9.228;2023-06-19T04:56:16;20.30;69.40
2897;DHT22;1458;49.728;9.228;2023-06-19T04:58:43;20.40;69.50
2897;DHT22;1458;49.728;9.228;2023-06-19T05:01:13;20.50;69.20
2897;DHT22;1458;49.728;9.228;2023-06-19T05:03:40;20.60;69.40
2897;DHT22;1458;49.728;9.228;2023-06-19T05:06:09;20.70;69.00
2897;DHT22;1458;49.728;9.228;2023-06-19T05:08:37;20.60;69.80
2897;DHT22;1458;49.728;9.228;2023-06-19T05:11:04;20.60;69.30
2897;DHT22;1458;49.728;9.228;2023-06-19T05:13:32;20.80;69.30
2897;DHT22;1458;49.728;9.228;2023-06-19T05:15:59;21.00;68.70
2897;DHT22;1458;49.728;9.228;2023-06-19T05:18:27;21.10;68.10
2897;DHT22;1458;49.728;9.228;2023-06-19T05:20:54;21.20;67.90
2897;DHT22;1458;49.728;9.228;2023-06-19T05:23:23;21.40;67.70
2897;DHT22;1458;49.728;9.228;2023-06-19T05:25:51;21.50;67.60
2897;DHT22;1458;49.728;9.228;2023-06-19T05:28:18;21.50;67.60
2897;DHT22;1458;49.728;9.228;2023-06-19T05:30:46;21.60;67.30
2897;DHT22;1458;49.728;9.228;2023-06-19T05:33:13;21.70;66.60
2897;DHT22;1458;49.728;9.228;2023-06-19T05:35:42;22.00;66.70
2897;DHT22;1458;49.728;9.228;2023-06-19T05:38:17;22.20;64.80
2897;DHT22;1458;49.728;9.228;2023-06-19T05:40:46;22.40;64.20
2897;DHT22;1458;49.728;9.228;2023-06-19T05:43:13;22.70;64.10
2897;DHT22;1458;49.728;9.228;2023-06-19T05:45:41;22.90;63.40
2897;DHT22;1458;49.728;9.228;2023-06-19T05:48:08;23.20;61.90
2897;DHT22;1458;49.728;9.228;2023-06-19T05:50:36;23.40;61.70
2897;DHT22;1458;49.728;9.228;2023-06-19T05:53:04;23.50;61.00
2897;DHT22;1458;49.728;9.228;2023-06-19T05:55:31;23.60;60.70
2897;DHT22;1458;49.728;9.228;2023-06-19T05:58:01;24.00;59.20
2897;DHT22;1458;49.728;9.228;2023-06-19T06:00:29;24.00;58.80
2897;DHT22;1458;49.728;9.228;2023-06-19T06:02:57;24.00;58.00
2897;DHT22;1458;49.728;9.228;2023-06-19T06:05:26;23.90;59.00
2897;DHT22;1458;49.728;9.228;2023-06-19T06:07:54;24.00;59.50
2897;DHT22;1458;49.728;9.228;2023-06-19T06:10:22;24.00;59.20
2897;DHT22;1458;49.728;9.228;2023-06-19T06:12:50;24.20;60.60
2897;DHT22;1458;49.728;9.228;2023-06-19T06:15:19;24.70;58.20
2897;DHT22;1458;49.728;9.228;2023-06-19T06:17:47;25.30;55.10
2897;DHT22;1458;49.728;9.228;2023-06-19T06:20:14;25.60;54.10
2897;DHT22;1458;49.728;9.228;2023-06-19T06:22:42;26.00;52.00
2897;DHT22;1458;49.728;9.228;2023-06-19T06:25:10;26.20;50.80
2897;DHT22;1458;49.728;9.228;2023-06-19T06:27:38;26.20;49.30
2897;DHT22;1458;49.728;9.228;2023-06-19T06:30:07;26.30;49.10
2897;DHT22;1458;49.728;9.228;2023-06-19T06:32:36;26.30;48.70
2897;DHT22;1458;49.728;9.228;2023-06-19T06:35:04;26.50;49.20
2897;DHT22;1458;49.728;9.228;2023-06-19T06:37:33;26.60;47.10
2897;DHT22;1458;49.728;9.228;2023-06-19T06:40:00;26.50;47.20
2897;DHT22;1458;49.728;9.228;2023-06-19T06:42:30;26.60;46.90
2897;DHT22;1458;49.728;9.228;2023-06-19T06:44:57;26.60;47.90
2897;DHT22;1458;49.728;9.228;2023-06-19T06:47:24;26.60;47.80
2897;DHT22;1458;49.728;9.228;2023-06-19T06:49:53;26.60;48.20
2897;DHT22;1458;49.728;9.228;2023-06-19T06:52:20;26.80;47.50
2897;DHT22;1458;49.728;9.228;2023-06-19T06:54:48;26.30;47.80
2897;DHT22;1458;49.728;9.228;2023-06-19T06:57:16;25.80;49.50
2897;DHT22;1458;49.728;9.228;2023-06-19T06:59:43;25.70;51.80
2897;DHT22;1458;49.728;9.228;2023-06-19T07:02:11;25.60;53.00
2897;DHT22;1458;49.728;9.228;2023-06-19T07:04:38;25.90;52.00
2897;DHT22;1458;49.728;9.228;2023-06-19T07:07:07;26.10;52.10
2897;DHT22;1458;49.728;9.228;2023-06-19T07:09:34;26.40;50.70
2897;DHT22;1458;49.728;9.228;2023-06-19T07:12:02;26.90;49.00
2897;DHT22;1458;49.728;9.228;2023-06-19T07:14:33;27.00;47.60
2897;DHT22;1458;49.728;9.228;2023-06-19T07:17:00;27.00;47.40
2897;DHT22;1458;49.728;9.228;2023-06-19T07:19:28;26.90;46.20
2897;DHT22;1458;49.728;9.228;2023-06-19T07:21:55;26.70;47.80
2897;DHT22;1458;49.728;9.228;2023-06-19T07:24:24;26.50;48.90
2897;DHT22;1458;49.728;9.228;2023-06-19T07:26:51;26.50;49.60
2897;DHT22;1458;49.728;9.228;2023-06-19T07:29:19;26.40;50.10
2897;DHT22;1458;49.728;9.228;2023-06-19T07:31:47;26.60;49.60
2897;DHT22;1458;49.728;9.228;2023-06-19T07:34:14;26.60;49.70
2897;DHT22;1458;49.728;9.228;2023-06-19T07:36:42;26.90;49.80
2897;DHT22;1458;49.728;9.228;2023-06-19T07:39:09;27.10;47.60
2897;DHT22;1458;49.728;9.228;2023-06-19T07:41:38;27.20;47.50
2897;DHT22;1458;49.728;9.228;2023-06-19T07:44:06;27.60;46.30
2897;DHT22;1458;49.728;9.228;2023-06-19T07:46:33;27.80;44.90
2897;DHT22;1458;49.728;9.228;2023-06-19T07:49:00;27.70;45.00
2897;DHT22;1458;49.728;9.228;2023-06-19T07:51:28;27.70;47.20
2897;DHT22;1458;49.728;9.228;2023-06-19T07:53:55;28.00;43.80
2897;DHT22;1458;49.728;9.228;2023-06-19T07:56:23;28.10;42.90
2897;DHT22;1458;49.728;9.228;2023-06-19T07:58:52;28.20;42.40
2897;DHT22;1458;49.728;9.228;2023-06-19T08:01:19;28.20;41.40
2897;DHT22;1458;49.728;9.228;2023-06-19T08:03:47;28.00;42.80
2897;DHT22;1458;49.728;9.228;2023-06-19T08:06:14;27.80;42.50
2897;DHT22;1458;49.728;9.228;2023-06-19T08:08:42;27.80;44.70
2897;DHT22;1458;49.728;9.228;2023-06-19T08:11:09;28.10;42.80
2897;DHT22;1458;49.728;9.228;2023-06-19T08:13:37;28.00;42.80
2897;DHT22;1458;49.728;9.228;2023-06-19T08:16:06;28.00;42.90
2897;DHT22;1458;49.728;9.228;2023-06-19T08:18:34;27.90;42.60
2897;DHT22;1458;49.728;9.228;2023-06-19T08:21:02;28.20;43.60
2897;DHT22;1458;49.728;9.228;2023-06-19T08:23:29;28.80;41.60
2897;DHT22;1458;49.728;9.228;2023-06-19T08:25:56;29.20;40.30
2897;DHT22;1458;49.728;9.228;2023-06-19T08:28:24;29.50;38.20
2897;DHT22;1458;49.728;9.228;2023-06-19T08:30:52;29.50;37.50
2897;DHT22;1458;49.728;9.228;2023-06-19T08:33:21;29.10;37.80
2897;DHT22;1458;49.728;9.228;2023-06-19T08:35:48;28.90;40.00
2897;DHT22;1458;49.728;9.228;2023-06-19T08:38:16;28.90;39.10
2897;DHT22;1458;49.728;9.228;2023-06-19T08:40:43;28.60;39.80
2897;DHT22;1458;49.728;9.228;2023-06-19T08:43:11;28.50;40.20
2897;DHT22;1458;49.728;9.228;2023-06-19T08:45:40;28.20;41.80
2897;DHT22;1458;49.728;9.228;2023-06-19T08:48:07;28.20;41.00
2897;DHT22;1458;49.728;9.228;2023-06-19T08:50:41;28.20;42.20
2897;DHT22;1458;49.728;9.228;2023-06-19T08:53:09;28.10;42.60
2897;DHT22;1458;49.728;9.228;2023-06-19T08:55:36;28.50;42.00
2897;DHT22;1458;49.728;9.228;2023-06-19T08:58:04;28.60;40.90
2897;DHT22;1458;49.728;9.228;2023-06-19T09:00:32;28.60;41.20
2897;DHT22;1458;49.728;9.228;2023-06-19T09:03:01;28.80;40.10
2897;DHT22;1458;49.728;9.228;2023-06-19T09:05:30;28.80;40.80
2897;DHT22;1458;49.728;9.228;2023-06-19T09:08:00;29.00;39.50
2897;DHT22;1458;49.728;9.228;2023-06-19T09:10:30;29.30;39.70
2897;DHT22;1458;49.728;9.228;2023-06-19T09:12:59;29.70;37.10
2897;DHT22;1458;49.728;9.228;2023-06-19T09:15:28;30.10;36.50
2897;DHT22;1458;49.728;9.228;2023-06-19T09:18:05;29.60;35.20
2897;DHT22;1458;49.728;9.228;2023-06-19T09:20:33;28.90;38.00
2897;DHT22;1458;49.728;9.228;2023-06-19T09:23:03;28.80;39.50
2897;DHT22;1458;49.728;9.228;2023-06-19T09:25:31;28.70;39.90
2897;DHT22;1458;49.728;9.228;2023-06-19T09:27:58;28.90;40.10
2897;DHT22;1458;49.728;9.228;2023-06-19T09:30:26;28.80;39.50
2897;DHT22;1458;49.728;9.228;2023-06-19T09:32:53;28.40;40.40
2897;DHT22;1458;49.728;9.228;2023-06-19T09:35:20;28.50;40.50
2897;DHT22;1458;49.728;9.228;2023-06-19T09:37:49;28.50;41.80
2897;DHT22;1458;49.728;9.228;2023-06-19T09:40:19;28.70;40.40
2897;DHT22;1458;49.728;9.228;2023-06-19T09:42:48;29.00;38.90
2897;DHT22;1458;49.728;9.228;2023-06-19T09:45:27;28.90;40.10
2897;DHT22;1458;49.728;9.228;2023-06-19T09:47:56;28.80;40.10
2897;DHT22;1458;49.728;9.228;2023-06-19T09:50:37;29.00;39.30
2897;DHT22;1458;49.728;9.228;2023-06-19T09:53:04;28.80;40.00
2897;DHT22;1458;49.728;9.228;2023-06-19T09:55:34;28.30;40.10
2897;DHT22;1458;49.728;9.228;2023-06-19T09:58:04;28.40;42.60
2897;DHT22;1458;49.728;9.228;2023-06-19T10:00:32;29.00;40.30
2897;DHT22;1458;49.728;9.228;2023-06-19T10:03:00;29.30;39.20
2897;DHT22;1458;49.728;9.228;2023-06-19T10:05:30;29.50;39.10
2897;DHT22;1458;49.728;9.228;2023-06-19T10:07:59;29.90;38.80
2897;DHT22;1458;49.728;9.228;2023-06-19T10:10:30;30.00;36.60
2897;DHT22;1458;49.728;9.228;2023-06-19T10:13:13;30.10;36.80
2897;DHT22;1458;49.728;9.228;2023-06-19T10:15:42;30.10;35.60
2897;DHT22;1458;49.728;9.228;2023-06-19T10:18:14;29.80;36.10
2897;DHT22;1458;49.728;9.228;2023-06-19T10:20:43;29.70;37.70
2897;DHT22;1458;49.728;9.228;2023-06-19T10:23:13;29.50;37.10
2897;DHT22;1458;49.728;9.228;2023-06-19T10:25:45;29.70;38.10
2897;DHT22;1458;49.728;9.228;2023-06-19T10:28:19;30.00;36.50
2897;DHT22;1458;49.728;9.228;2023-06-19T10:30:54;29.80;36.70
2897;DHT22;1458;49.728;9.228;2023-06-19T10:33:23;29.60;37.10
2897;DHT22;1458;49.728;9.228;2023-06-19T10:35:51;29.50;37.50
2897;DHT22;1458;49.728;9.228;2023-06-19T10:38:19;29.40;37.60
2897;DHT22;1458;49.728;9.228;2023-06-19T10:40:47;29.30;38.10
2897;DHT22;1458;49.728;9.228;2023-06-19T10:43:21;29.10;38.80
2897;DHT22;1458;49.728;9.228;2023-06-19T10:45:50;29.10;40.00
2897;DHT22;1458;49.728;9.228;2023-06-19T10:48:23;29.20;38.30
2897;DHT22;1458;49.728;9.228;2023-06-19T10:50:51;29.40;38.50
2897;DHT22;1458;49.728;9.228;2023-06-19T10:53:25;29.80;36.50
2897;DHT22;1458;49.728;9.228;2023-06-19T10:55:56;30.10;35.80
2897;DHT22;1458;49.728;9.228;2023-06-19T10:58:26;30.00;35.40
2897;DHT22;1458;49.728;9.228;2023-06-19T11:00:53;29.80;35.90
2897;DHT22;1458;49.728;9.228;2023-06-19T11:03:21;30.00;35.30
2897;DHT22;1458;49.728;9.228;2023-06-19T11:05:49;29.70;35.70
2897;DHT22;1458;49.728;9.228;2023-06-19T11:08:21;29.60;35.90
2897;DHT22;1458;49.728;9.228;2023-06-19T11:10:49;29.50;36.80
2897;DHT22;1458;49.728;9.228;2023-06-19T11:13:18;29.90;35.20
2897;DHT22;1458;49.728;9.228;2023-06-19T11:15:48;30.20;34.90
2897;DHT22;1458;49.728;9.228;2023-06-19T11:18:17;30.50;33.50
2897;DHT22;1458;49.728;9.228;2023-06-19T11:20:45;30.70;33.20
2897;DHT22;1458;49.728;9.228;2023-06-19T11:23:14;30.60;32.30
2897;DHT22;1458;49.728;9.228;2023-06-19T11:25:42;30.60;32.60
2897;DHT22;1458;49.728;9.228;2023-06-19T11:28:14;30.90;33.10
2897;DHT22;1458;49.728;9.228;2023-06-19T11:30:43;30.90;31.70
2897;DHT22;1458;49.728;9.228;2023-06-19T11:33:17;30.80;31.50
2897;DHT22;1458;49.728;9.228;2023-06-19T11:35:48;30.80;29.70
2897;DHT22;1458;49.728;9.228;2023-06-19T11:38:18;30.70;30.00
2897;DHT22;1458;49.728;9.228;2023-06-19T11:40:47;30.50;31.90
2897;DHT22;1458;49.728;9.228;2023-06-19T11:43:24;30.60;31.70
2897;DHT22;1458;49.728;9.228;2023-06-19T11:45:53;30.70;32.80
2897;DHT22;1458;49.728;9.228;2023-06-19T11:48:26;30.70;32.20
2897;DHT22;1458;49.728;9.228;2023-06-19T11:50:54;30.90;29.90
2897;DHT22;1458;49.728;9.228;2023-06-19T11:53:22;30.90;30.30
2897;DHT22;1458;49.728;9.228;2023-06-19T11:55:51;31.40;30.00
2897;DHT22;1458;49.728;9.228;2023-06-19T11:58:19;31.40;28.00
2897;DHT22;1458;49.728;9.228;2023-06-19T12:00:46;31.20;29.50
2897;DHT22;1458;49.728;9.228;2023-06-19T12:03:14;31.50;29.50
2897;DHT22;1458;49.728;9.228;2023-06-19T12:05:43;31.80;28.30
2897;DHT22;1458;49.728;9.228;2023-06-19T12:08:11;31.40;28.00
2897;DHT22;1458;49.728;9.228;2023-06-19T12:10:38;31.10;28.30
2897;DHT22;1458;49.728;9.228;2023-06-19T12:13:06;30.70;29.40
2897;DHT22;1458;49.728;9.228;2023-06-19T12:15:33;30.90;30.00
2897;DHT22;1458;49.728;9.228;2023-06-19T12:18:01;31.20;29.20
2897;DHT22;1458;49.728;9.228;2023-06-19T12:20:29;31.30;29.60
2897;DHT22;1458;49.728;9.228;2023-06-19T12:22:58;31.20;29.00
2897;DHT22;1458;49.728;9.228;2023-06-19T12:25:25;31.40;28.70
2897;DHT22;1458;49.728;9.228;2023-06-19T12:27:53;31.30;27.90
2897;DHT22;1458;49.728;9.228;2023-06-19T12:30:20;31.20;28.00
2897;DHT22;1458;49.728;9.228;2023-06-19T12:32:48;31.20;29.30
2897;DHT22;1458;49.728;9.228;2023-06-19T12:35:16;31.50;28.80
2897;DHT22;1458;49.728;9.228;2023-06-19T12:37:43;31.60;28.60
2897;DHT22;1458;49.728;9.228;2023-06-19T12:40:14;31.40;27.60
2897;DHT22;1458;49.728;9.228;2023-06-19T12:42:42;31.40;28.40
2897;DHT22;1458;49.728;9.228;2023-06-19T12:45:10;31.50;28.10
2897;DHT22;1458;49.728;9.228;2023-06-19T12:47:38;31.20;27.80
2897;DHT22;1458;49.728;9.228;2023-06-19T12:50:06;31.20;27.90
2897;DHT22;1458;49.728;9.228;2023-06-19T12:52:36;31.10;28.60
2897;DHT22;1458;49.728;9.228;2023-06-19T12:55:04;31.00;28.30
2897;DHT22;1458;49.728;9.228;2023-06-19T12:57:33;30.80;30.00
2897;DHT22;1458;49.728;9.228;2023-06-19T13:00:01;30.80;28.70
2897;DHT22;1458;49.728;9.228;2023-06-19T13:02:29;30.80;29.20
2897;DHT22;1458;49.728;9.228;2023-06-19T13:04:57;30.80;27.60
2897;DHT22;1458;49.728;9.228;2023-06-19T13:07:25;30.80;26.80
2897;DHT22;1458;49.728;9.228;2023-06-19T13:09:52;31.00;26.80
2897;DHT22;1458;49.728;9.228;2023-06-19T13:12:22;30.90;25.70
2897;DHT22;1458;49.728;9.228;2023-06-19T13:14:51;30.90;25.10
2897;DHT22;1458;49.728;9.228;2023-06-19T13:17:19;31.10;26.40
2897;DHT22;1458;49.728;9.228;2023-06-19T13:19:48;31.10;25.40
2897;DHT22;1458;49.728;9.228;2023-06-19T13:22:15;31.00;26.00
2897;DHT22;1458;49.728;9.228;2023-06-19T13:24:43;31.10;26.30
2897;DHT22;1458;49.728;9.228;2023-06-19T13:27:10;30.90;25.90
2897;DHT22;1458;49.728;9.228;2023-06-19T13:29:38;30.80;26.30
2897;DHT22;1458;49.728;9.228;2023-06-19T13:32:08;30.90;25.40
2897;DHT22;1458;49.728;9.228;2023-06-19T13:34:36;31.50;25.40
2897;DHT22;1458;49.728;9.228;2023-06-19T13:37:03;31.40;23.90
2897;DHT22;1458;49.728;9.228;2023-06-19T13:39:31;31.60;23.20
2897;DHT22;1458;49.728;9.228;2023-06-19T13:41:58;31.60;22.70
2897;DHT22;1458;49.728;9.228;2023-06-19T13:44:27;31.70;22.10
2897;DHT22;1458;49.728;9.228;2023-06-19T13:46:54;31.60;22.40
2897;DHT22;1458;49.728;9.228;2023-06-19T13:49:23;31.80;22.10
2897;DHT22;1458;49.728;9.228;2023-06-19T13:51:51;31.50;22.20
2897;DHT22;1458;49.728;9.228;2023-06-19T13:54:19;31.60;21.90
2897;DHT22;1458;49.728;9.228;2023-06-19T13:56:46;32.00;23.00
2897;DHT22;1458;49.728;9.228;2023-06-19T13:59:15;32.30;21.30
2897;DHT22;1458;49.728;9.228;2023-06-19T14:01:43;32.20;22.20
2897;DHT22;1458;49.728;9.228;2023-06-19T14:04:10;31.90;22.20
2897;DHT22;1458;49.728;9.228;2023-06-19T14:06:39;31.80;23.50
2897;DHT22;1458;49.728;9.228;2023-06-19T14:09:08;31.50;24.20
2897;DHT22;1458;49.728;9.228;2023-06-19T14:11:35;31.40;24.10
2897;DHT22;1458;49.728;9.228;2023-06-19T14:14:03;31.20;24.50
2897;DHT22;1458;49.728;9.228;2023-06-19T14:16:30;31.00;26.00
2897;DHT22;1458;49.728;9.228;2023-06-19T14:18:58;31.30;24.80
2897;DHT22;1458;49.728;9.228;2023-06-19T14:21:25;31.70;24.50
2897;DHT22;1458;49.728;9.228;2023-06-19T14:23:54;31.90;24.10
2897;DHT22;1458;49.728;9.228;2023-06-19T14:26:21;31.40;23.40
2897;DHT22;1458;49.728;9.228;2023-06-19T14:28:49;31.20;24.10
2897;DHT22;1458;49.728;9.228;2023-06-19T14:31:20;31.10;24.10
2897;DHT22;1458;49.728;9.228;2023-06-19T14:33:48;31.20;24.80
2897;DHT22;1458;49.728;9.228;2023-06-19T14:36:16;31.10;23.50
2897;DHT22;1458;49.728;9.228;2023-06-19T14:38:43;31.10;23.30
2897;DHT22;1458;49.728;9.228;2023-06-19T14:41:12;31.30;23.20
2897;DHT22;1458;49.728;9.228;2023-06-19T14:43:40;31.30;23.30
2897;DHT22;1458;49.728;9.228;2023-06-19T14:46:07;31.20;23.50
2897;DHT22;1458;49.728;9.228;2023-06-19T14:48:35;31.00;24.00
2897;DHT22;1458;49.728;9.228;2023-06-19T14:51:02;30.80;25.90
2897;DHT22;1458;49.728;9.228;2023-06-19T14:53:31;30.60;25.40
2897;DHT22;1458;49.728;9.228;2023-06-19T14:55:59;30.50;25.80
2897;DHT22;1458;49.728;9.228;2023-06-19T14:58:28;31.00;25.50
2897;DHT22;1458;49.728;9.228;2023-06-19T15:00:55;31.50;24.30
2897;DHT22;1458;49.728;9.228;2023-06-19T15:03:23;31.60;24.00
2897;DHT22;1458;49.728;9.228;2023-06-19T15:05:51;31.60;22.80
2897;DHT22;1458;49.728;9.228;2023-06-19T15:08:18;31.30;23.30
2897;DHT22;1458;49.728;9.228;2023-06-19T15:10:48;31.00;23.30
2897;DHT22;1458;49.728;9.228;2023-06-19T15:13:15;31.00;24.10
2897;DHT22;1458;49.728;9.228;2023-06-19T15:15:45;31.40;24.10
2897;DHT22;1458;49.728;9.228;2023-06-19T15:18:12;31.50;23.70
2897;DHT22;1458;49.728;9.228;2023-06-19T15:20:39;31.80;23.10
2897;DHT22;1458;49.728;9.228;2023-06-19T15:23:08;31.70;22.80
2897;DHT22;1458;49.728;9.228;2023-06-19T15:25:35;31.70;22.70
2897;DHT22;1458;49.728;9.228;2023-06-19T15:28:03;31.60;23.60
2897;DHT22;1458;49.728;9.228;2023-06-19T15:30:31;31.50;23.00
2897;DHT22;1458;49.728;9.228;2023-06-19T15:33:00;31.40;23.90
2897;DHT22;1458;49.728;9.228;2023-06-19T15:35:27;31.20;23.50
2897;DHT22;1458;49.728;9.228;2023-06-19T15:37:55;31.10;24.40
2897;DHT22;1458;49.728;9.228;2023-06-19T15:40:24;31.30;23.20
2897;DHT22;1458;49.728;9.228;2023-06-19T15:42:53;31.10;23.20
2897;DHT22;1458;49.728;9.228;2023-06-19T15:45:20;30.90;23.70
2897;DHT22;1458;49.728;9.228;2023-06-19T15:47:48;30.80;25.10
2897;DHT22;1458;49.728;9.228;2023-06-19T15:50:17;30.70;24.80
2897;DHT22;1458;49.728;9.228;2023-06-19T15:52:44;30.60;25.40
2897;DHT22;1458;49.728;9.228;2023-06-19T15:55:13;30.70;25.40
2897;DHT22;1458;49.728;9.228;2023-06-19T15:57:41;30.90;25.10
2897;DHT22;1458;49.728;9.228;2023-06-19T16:00:09;30.90;24.60
2897;DHT22;1458;49.728;9.228;2023-06-19T16:02:38;31.30;25.00
2897;DHT22;1458;49.728;9.228;2023-06-19T16:05:09;31.40;23.40
2897;DHT22;1458;49.728;9.228;2023-06-19T16:07:37;31.70;24.20
2897;DHT22;1458;49.728;9.228;2023-06-19T16:10:06;31.60;23.00